Time;durP1;ratioP1;P1;durP2;ratioP2;P2;SDS_P1;SDS_P2;PMS_P1;PMS_P2;Temp;Humidity;BMP_temperature;BMP_pressure;BME280_temperature;BME280_humidity;BME280_pressure;Samples;Min_cycle;Max_cycle;Signal;HPM_P1;HPM_P2
2023/06/24 00:02:23;;;;;;;5.50;5.00;;;21.30;99.90;;;;;;5025660;28;20041;-42
2023/06/24 00:04:50;;;;;;;5.57;4.95;;;21.40;99.90;;;;;;5025598;28;20037;-43
2023/06/24 00:07:21;;;;;;;5.35;4.85;;;21.40;99.90;;;;;;5024881;28;20033;-43
2023/06/24 00:09:47;;;;;;;5.27;4.77;;;21.40;99.90;;;;;;5025568;28;20774;-43
2023/06/24 00:12:18;;;;;;;5.15;4.65;;;21.40;99.90;;;;;;5025509;28;20492;-42
2023/06/24 00:14:47;;;;;;;6.25;5.32;;;21.30;99.90;;;;;;5025049;28;20037;-43
2023/06/24 00:17:13;;;;;;;5.68;5.18;;;21.30;99.90;;;;;;5025250;28;20074;-43
2023/06/24 00:19:39;;;;;;;5.75;5.18;;;21.30;99.90;;;;;;5024882;28;20025;-42
2023/06/24 00:22:06;;;;;;;6.68;5.00;;;21.30;99.90;;;;;;5024839;28;20060;-43
2023/06/24 00:24:33;;;;;;;5.60;5.10;;;21.20;99.90;;;;;;5024816;28;20029;-42
2023/06/24 00:26:59;;;;;;;5.28;4.88;;;21.20;99.90;;;;;;5024747;28;20477;-43
2023/06/24 00:29:24;;;;;;;5.57;5.07;;;21.20;99.90;;;;;;5024177;28;20037;-42
2023/06/24 00:31:50;;;;;;;5.75;5.25;;;21.10;99.90;;;;;;5024820;28;20052;-41
2023/06/24 00:34:19;;;;;;;5.75;5.10;;;21.10;99.90;;;;;;5023828;28;20021;-42
2023/06/24 00:36:48;;;;;;;5.30;4.70;;;21.10;99.90;;;;;;5025870;28;20096;-42
2023/06/24 00:39:14;;;;;;;6.28;5.13;;;21.10;99.90;;;;;;5024852;28;20742;-42
2023/06/24 00:41:39;;;;;;;5.28;4.78;;;21.10;99.90;;;;;;5024163;28;20036;-43
2023/06/24 00:44:05;;;;;;;6.15;5.13;;;21.10;99.90;;;;;;5024606;28;20033;-43
2023/06/24 00:46:33;;;;;;;5.57;4.80;;;21.10;99.90;;;;;;5024392;28;20021;-42
2023/06/24 00:49:00;;;;;;;5.85;5.30;;;21.10;99.90;;;;;;5024194;28;20579;-42
2023/06/24 00:51:31;;;;;;;5.50;5.00;;;21.10;99.90;;;;;;5024477;28;20492;-41
2023/06/24 00:54:00;;;;;;;5.90;5.13;;;21.20;99.90;;;;;;5025382;28;20033;-41
2023/06/24 00:56:30;;;;;;;5.50;5.00;;;21.20;99.90;;;;;;5022543;28;20041;-41
2023/06/24 00:58:58;;;;;;;5.38;4.88;;;21.20;99.90;;;;;;5025214;28;20033;-42
2023/06/24 01:01:28;;;;;;;5.00;4.50;;;21.30;99.90;;;;;;5023902;28;20034;-42
2023/06/24 01:03:53;;;;;;;5.75;5.10;;;21.20;99.90;;;;;;5023863;28;20037;-41
2023/06/24 01:06:20;;;;;;;5.45;4.95;;;21.20;99.90;;;;;;5024157;28;20032;-43
2023/06/24 01:08:50;;;;;;;6.15;5.28;;;21.10;99.90;;;;;;5024315;28;20053;-42
2023/06/24 01:11:19;;;;;;;7.40;5.32;;;21.10;99.90;;;;;;5023218;28;20021;-42
2023/06/24 01:13:44;;;;;;;5.78;5.18;;;21.00;99.90;;;;;;5022817;28;20057;-42
2023/06/24 01:16:18;;;;;;;6.85;5.30;;;21.00;99.90;;;;;;5023770;28;20071;-43
2023/06/24 01:18:48;;;;;;;6.47;4.97;;;21.00;99.90;;;;;;5024375;28;20045;-43
2023/06/24 01:21:50;;;;;;;5.65;5.15;;;20.90;99.90;;;;;;5024098;28;20033;-44
2023/06/24 01:25:01;;;;;;;5.88;5.18;;;20.90;99.90;;;;;;5003972;28;20038;-41
2023/06/24 01:27:37;;;;;;;5.50;5.00;;;20.80;99.90;;;;;;4985831;28;20144;-42
2023/06/24 01:30:19;;;;;;;5.80;5.20;;;20.80;99.90;;;;;;5024022;28;20055;-43
2023/06/24 01:33:00;;;;;;;7.77;5.40;;;20.70;99.90;;;;;;5024052;28;20124;-43
2023/06/24 01:35:33;;;;;;;6.53;5.03;;;20.70;99.90;;;;;;5023726;28;20260;-43
2023/06/24 01:38:03;;;;;;;7.32;5.78;;;20.60;99.90;;;;;;5020160;28;20029;-43
2023/06/24 01:40:42;;;;;;;6.28;5.47;;;20.50;99.90;;;;;;5024281;28;20040;-42
2023/06/24 01:43:09;;;;;;;5.75;5.03;;;20.40;99.90;;;;;;5020221;28;20040;-43
2023/06/24 01:45:42;;;;;;;6.68;5.22;;;20.30;99.90;;;;;;5023145;28;20393;-42
2023/06/24 01:48:14;;;;;;;5.72;5.22;;;20.30;99.90;;;;;;5026683;28;20022;-43
2023/06/24 01:50:45;;;;;;;8.32;6.03;;;20.20;99.90;;;;;;5027797;28;20041;-42
2023/06/24 01:53:14;;;;;;;5.75;5.22;;;20.20;99.90;;;;;;5027123;28;20025;-42
2023/06/24 01:55:42;;;;;;;6.60;5.68;;;20.20;99.90;;;;;;5027656;28;20049;-42
2023/06/24 01:58:11;;;;;;;6.60;5.97;;;20.10;99.90;;;;;;5027292;28;20034;-42
2023/06/24 02:00:38;;;;;;;6.40;5.72;;;20.20;99.90;;;;;;5027048;28;20065;-42
2023/06/24 02:03:06;;;;;;;6.05;5.55;;;20.10;99.90;;;;;;5027231;28;20067;-42
2023/06/24 02:05:33;;;;;;;6.90;6.13;;;20.20;99.90;;;;;;5027020;28;20052;-43
2023/06/24 02:08:01;;;;;;;7.38;5.82;;;20.20;99.90;;;;;;5028330;28;20049;-43
2023/06/24 02:10:28;;;;;;;6.57;5.97;;;20.20;99.90;;;;;;5028183;28;20026;-42
2023/06/24 02:12:55;;;;;;;6.53;5.85;;;20.20;99.90;;;;;;5026857;28;20060;-42
2023/06/24 02:15:23;;;;;;;6.50;5.82;;;20.20;99.90;;;;;;5027313;28;20032;-42
2023/06/24 02:17:51;;;;;;;6.90;6.20;;;20.20;99.90;;;;;;5027724;28;20030;-42
2023/06/24 02:20:18;;;;;;;6.43;5.82;;;20.20;99.90;;;;;;5026641;28;20029;-43
2023/06/24 02:22:45;;;;;;;6.80;6.20;;;20.20;99.90;;;;;;5027318;28;20461;-44
2023/06/24 02:25:11;;;;;;;6.68;5.97;;;20.20;99.90;;;;;;5027741;28;20095;-44
2023/06/24 02:27:37;;;;;;;6.57;5.97;;;20.20;99.90;;;;;;5026536;28;20017;-42
2023/06/24 02:30:04;;;;;;;7.18;6.50;;;20.20;99.90;;;;;;5027715;28;20057;-42
2023/06/24 02:32:30;;;;;;;6.97;6.38;;;20.20;99.90;;;;;;5027283;28;20021;-43
2023/06/24 02:34:58;;;;;;;6.97;6.30;;;20.10;99.90;;;;;;5027074;28;20025;-43
2023/06/24 02:37:24;;;;;;;7.78;6.07;;;20.10;99.90;;;;;;5026690;28;20618;-43
2023/06/24 02:39:52;;;;;;;6.68;6.07;;;20.10;99.90;;;;;;5026841;28;20342;-43
2023/06/24 02:42:18;;;;;;;6.78;6.07;;;20.10;99.90;;;;;;5026746;28;20075;-43
2023/06/24 02:44:43;;;;;;;7.15;6.43;;;20.10;99.90;;;;;;5026848;28;20060;-43
2023/06/24 02:47:12;;;;;;;6.63;6.03;;;20.10;99.90;;;;;;5027174;28;20025;-43
2023/06/24 02:49:42;;;;;;;7.32;6.45;;;20.00;99.90;;;;;;5026305;28;20021;-42
2023/06/24 02:52:07;;;;;;;7.05;6.32;;;20.00;99.90;;;;;;5026444;28;20052;-42
2023/06/24 02:54:34;;;;;;;9.63;8.63;;;19.90;99.90;;;;;;5025818;28;20392;-42
2023/06/24 02:57:00;;;;;;;8.90;8.00;;;19.90;99.90;;;;;;5026356;28;20136;-42
2023/06/24 02:59:26;;;;;;;7.90;6.90;;;19.90;99.90;;;;;;5026257;28;20391;-43
2023/06/24 03:01:52;;;;;;;8.32;7.53;;;19.90;99.90;;;;;;5025904;28;20030;-42
2023/06/24 03:04:19;;;;;;;8.70;7.20;;;19.80;99.90;;;;;;5026320;28;20041;-42
2023/06/24 03:06:46;;;;;;;7.88;7.05;;;19.90;99.90;;;;;;5026483;28;20128;-42
2023/06/24 03:09:15;;;;;;;9.18;7.72;;;19.90;99.90;;;;;;5024796;28;20033;-43
2023/06/24 03:11:47;;;;;;;8.32;7.53;;;19.80;99.90;;;;;;5026567;28;20041;-43
2023/06/24 03:14:15;;;;;;;7.35;6.47;;;19.80;99.90;;;;;;5026558;28;20029;-42
2023/06/24 03:16:42;;;;;;;7.68;6.97;;;19.80;99.90;;;;;;5014646;28;20457;-43
2023/06/24 03:19:08;;;;;;;8.68;7.40;;;19.80;99.90;;;;;;5026358;28;20048;-42
2023/06/24 03:21:33;;;;;;;8.73;6.80;;;19.80;99.90;;;;;;5026385;28;20009;-42
2023/06/24 03:23:59;;;;;;;8.15;7.13;;;19.80;99.90;;;;;;5026203;28;20029;-42
2023/06/24 03:26:40;;;;;;;7.28;6.65;;;19.70;99.90;;;;;;5025350;28;20013;-43
2023/06/24 03:29:07;;;;;;;7.35;6.63;;;19.70;99.90;;;;;;5027034;28;20030;-42
2023/06/24 03:31:33;;;;;;;7.53;6.80;;;19.70;99.90;;;;;;5025394;28;20026;-42
2023/06/24 03:33:58;;;;;;;7.05;6.38;;;19.70;99.90;;;;;;5026557;28;20044;-42
2023/06/24 03:36:24;;;;;;;7.88;6.72;;;19.70;99.90;;;;;;5025909;28;20793;-42
2023/06/24 03:38:50;;;;;;;7.25;6.63;;;19.70;99.90;;;;;;5026052;28;20018;-42
2023/06/24 03:41:16;;;;;;;7.57;6.80;;;19.70;99.90;;;;;;5026399;28;20030;-41
2023/06/24 03:43:42;;;;;;;7.60;6.90;;;19.60;99.90;;;;;;5026243;28;20511;-41
2023/06/24 03:46:07;;;;;;;7.85;7.05;;;19.70;99.90;;;;;;5025638;28;20033;-42
2023/06/24 03:48:34;;;;;;;8.00;7.20;;;19.60;99.90;;;;;;5026952;28;20056;-42
2023/06/24 03:51:00;;;;;;;8.20;7.50;;;19.60;99.90;;;;;;5025777;28;20029;-41
2023/06/24 03:53:25;;;;;;;8.50;7.60;;;19.60;99.90;;;;;;5026688;28;20036;-42
2023/06/24 03:55:51;;;;;;;8.50;7.70;;;19.60;99.90;;;;;;5025935;28;20108;-42
2023/06/24 03:58:16;;;;;;;8.48;7.53;;;19.60;99.90;;;;;;5024942;28;20152;-42
2023/06/24 04:00:44;;;;;;;8.20;7.40;;;19.60;99.90;;;;;;5025646;28;20021;-42
2023/06/24 04:03:10;;;;;;;9.30;7.50;;;19.60;99.90;;;;;;5025138;28;20044;-43
2023/06/24 04:05:35;;;;;;;7.65;6.85;;;19.60;99.90;;;;;;5024524;28;20048;-42
2023/06/24 04:08:02;;;;;;;8.27;7.47;;;19.60;99.90;;;;;;5025650;28;20026;-42
2023/06/24 04:10:28;;;;;;;7.97;7.25;;;19.60;99.90;;;;;;5024368;28;20481;-42
2023/06/24 04:12:53;;;;;;;7.15;6.45;;;19.60;99.90;;;;;;5024457;28;20022;-42
2023/06/24 04:15:19;;;;;;;7.45;6.75;;;19.50;99.90;;;;;;5025312;28;20038;-42
2023/06/24 04:17:44;;;;;;;9.00;7.80;;;19.60;99.90;;;;;;5025066;28;20468;-41
2023/06/24 04:20:10;;;;;;;8.85;7.95;;;19.60;99.90;;;;;;5024591;28;20029;-43
2023/06/24 04:22:37;;;;;;;8.32;7.40;;;19.60;99.90;;;;;;5025387;28;20021;-42
2023/06/24 04:25:07;;;;;;;8.05;7.15;;;19.60;99.90;;;;;;5025160;28;20441;-42
2023/06/24 04:27:33;;;;;;;8.30;7.50;;;19.60;99.90;;;;;;5024439;28;20105;-43
2023/06/24 04:30:02;;;;;;;9.32;7.60;;;19.60;99.90;;;;;;5025667;28;20037;-42
2023/06/24 04:32:28;;;;;;;10.18;7.80;;;19.60;99.90;;;;;;5024794;28;20033;-43
2023/06/24 04:34:53;;;;;;;7.88;7.07;;;19.60;99.90;;;;;;5024352;28;20748;-43
2023/06/24 04:37:19;;;;;;;8.20;7.40;;;19.60;99.90;;;;;;5024233;28;20420;-42
2023/06/24 04:39:45;;;;;;;7.80;6.88;;;19.70;99.90;;;;;;5024451;28;20021;-41
2023/06/24 04:42:11;;;;;;;7.75;6.95;;;19.70;99.90;;;;;;5023659;28;20037;-41
2023/06/24 04:44:37;;;;;;;8.10;7.30;;;19.70;99.90;;;;;;5013946;28;20088;-42
2023/06/24 04:47:03;;;;;;;8.02;7.22;;;19.70;99.90;;;;;;5024729;28;20646;-42
2023/06/24 04:49:28;;;;;;;8.40;7.03;;;19.70;99.90;;;;;;5023821;28;20469;-42
2023/06/24 04:51:54;;;;;;;7.97;7.20;;;19.70;99.90;;;;;;5024632;28;20026;-42
2023/06/24 04:54:19;;;;;;;7.97;7.18;;;19.70;99.90;;;;;;5023618;28;20059;-42
2023/06/24 04:56:48;;;;;;;8.38;7.57;;;19.80;99.90;;;;;;5024384;28;20053;-42
2023/06/24 04:59:13;;;;;;;9.68;7.72;;;19.80;99.90;;;;;;5024359;28;20865;-41
2023/06/24 05:01:42;;;;;;;8.90;8.00;;;19.80;99.90;;;;;;5024486;28;20017;-42
2023/06/24 05:04:08;;;;;;;9.57;7.65;;;19.90;99.90;;;;;;5023998;28;20037;-43
2023/06/24 05:06:33;;;;;;;8.65;7.38;;;19.90;99.90;;;;;;5024516;28;20041;-42
2023/06/24 05:09:05;;;;;;;8.75;7.05;;;19.90;99.90;;;;;;5023565;28;20033;-41
2023/06/24 05:11:30;;;;;;;8.85;7.15;;;19.90;99.90;;;;;;5024525;28;20022;-41
2023/06/24 05:13:57;;;;;;;9.50;8.50;;;19.90;99.90;;;;;;5024352;28;20010;-41
2023/06/24 05:16:23;;;;;;;8.77;7.80;;;19.80;99.90;;;;;;5023407;28;20037;-41
2023/06/24 05:18:49;;;;;;;9.48;8.52;;;19.90;99.90;;;;;;5024113;28;20021;-42
2023/06/24 05:21:15;;;;;;;9.07;7.53;;;19.80;99.90;;;;;;5024601;28;20384;-42
2023/06/24 05:23:41;;;;;;;8.43;7.18;;;19.90;99.90;;;;;;5023001;28;20025;-41
2023/06/24 05:26:06;;;;;;;7.70;6.97;;;19.90;99.90;;;;;;5024331;28;20029;-43
2023/06/24 05:28:32;;;;;;;8.10;7.25;;;19.90;99.90;;;;;;5024354;28;20021;-43
2023/06/24 05:30:57;;;;;;;7.55;6.85;;;19.80;99.90;;;;;;5023701;28;20029;-43
2023/06/24 05:33:23;;;;;;;7.95;7.15;;;19.90;99.90;;;;;;5024392;28;20718;-43
2023/06/24 05:35:49;;;;;;;7.65;6.90;;;19.90;99.90;;;;;;5023958;28;20025;-43
2023/06/24 05:38:15;;;;;;;7.15;6.18;;;19.90;99.90;;;;;;5023065;28;20511;-42
2023/06/24 05:40:40;;;;;;;7.22;6.53;;;19.90;99.90;;;;;;5024182;28;20111;-42
2023/06/24 05:43:06;;;;;;;7.00;6.35;;;19.90;99.90;;;;;;5023864;28;20053;-42
2023/06/24 05:45:31;;;;;;;7.78;7.00;;;19.90;99.90;;;;;;5023135;28;20069;-42
2023/06/24 05:47:57;;;;;;;7.22;6.53;;;19.90;99.90;;;;;;5023678;28;20586;-43
2023/06/24 05:50:23;;;;;;;6.85;6.15;;;19.90;99.90;;;;;;5023822;28;20036;-43
2023/06/24 05:52:48;;;;;;;6.57;5.63;;;20.00;99.90;;;;;;5023213;28;20127;-43
2023/06/24 05:55:14;;;;;;;6.40;5.80;;;20.10;99.90;;;;;;5023740;28;20057;-43
2023/06/24 05:57:40;;;;;;;5.55;5.00;;;20.10;99.90;;;;;;5023112;28;20450;-42
2023/06/24 06:00:06;;;;;;;6.07;5.25;;;20.10;99.90;;;;;;5023274;28;20041;-42
2023/06/24 06:02:32;;;;;;;5.53;5.00;;;20.10;99.90;;;;;;5023924;28;20071;-42
2023/06/24 06:05:01;;;;;;;5.30;4.68;;;20.10;99.90;;;;;;5022822;28;20028;-42
2023/06/24 06:07:27;;;;;;;6.07;4.50;;;20.20;99.90;;;;;;5012757;28;20030;-42
2023/06/24 06:09:52;;;;;;;5.15;4.30;;;20.20;99.90;;;;;;5023812;28;20041;-43
2023/06/24 06:12:18;;;;;;;4.57;4.18;;;20.20;99.90;;;;;;5023213;28;20052;-43
2023/06/24 06:14:49;;;;;;;4.97;4.28;;;20.20;99.90;;;;;;5024304;28;20041;-43
2023/06/24 06:17:15;;;;;;;5.93;5.32;;;20.40;99.90;;;;;;5024062;28;20033;-43
2023/06/24 06:19:41;;;;;;;5.90;4.95;;;20.40;99.90;;;;;;5023153;28;20030;-41
2023/06/24 06:22:07;;;;;;;6.78;6.03;;;20.40;99.90;;;;;;5023137;28;20036;-42
2023/06/24 06:24:33;;;;;;;6.43;5.57;;;20.40;99.90;;;;;;5023663;28;20072;-42
2023/06/24 06:26:59;;;;;;;6.53;5.40;;;20.50;99.90;;;;;;5022899;28;20065;-42
2023/06/24 06:29:28;;;;;;;7.63;5.18;;;20.50;99.90;;;;;;5023164;28;20072;-42
2023/06/24 06:31:55;;;;;;;6.10;5.50;;;20.60;99.90;;;;;;5023351;28;20483;-42
2023/06/24 06:34:20;;;;;;;5.85;4.80;;;20.60;99.90;;;;;;5026888;28;20044;-41
2023/06/24 06:36:46;;;;;;;5.85;4.85;;;20.60;99.90;;;;;;5027217;28;20021;-43
2023/06/24 06:39:11;;;;;;;5.80;5.20;;;20.70;99.90;;;;;;5027073;28;20026;-46
2023/06/24 06:41:37;;;;;;;5.85;5.18;;;20.70;99.90;;;;;;5026906;28;20053;-43
2023/06/24 06:44:03;;;;;;;5.82;5.22;;;20.70;99.90;;;;;;5027188;28;20033;-43
2023/06/24 06:46:28;;;;;;;5.18;4.65;;;20.80;99.90;;;;;;5026682;28;20560;-43
2023/06/24 06:48:57;;;;;;;5.38;4.82;;;20.80;99.90;;;;;;5026379;28;20053;-43
2023/06/24 06:51:24;;;;;;;5.20;4.68;;;20.80;99.90;;;;;;5026844;28;20049;-43
2023/06/24 06:53:50;;;;;;;5.43;4.93;;;20.90;99.90;;;;;;5026532;28;20021;-43
2023/06/24 06:56:33;;;;;;;6.55;5.22;;;20.90;99.90;;;;;;5026490;28;20056;-43
2023/06/24 06:59:02;;;;;;;5.30;4.75;;;21.00;99.90;;;;;;5027219;28;20022;-43
2023/06/24 07:01:27;;;;;;;5.32;4.82;;;21.00;99.90;;;;;;5026063;28;20073;-43
2023/06/24 07:03:53;;;;;;;5.95;5.30;;;21.10;99.90;;;;;;5026507;28;20033;-43
2023/06/24 07:06:21;;;;;;;5.55;4.57;;;21.10;99.90;;;;;;5026243;28;20108;-43
2023/06/24 07:08:47;;;;;;;6.22;5.50;;;21.20;99.90;;;;;;5026324;28;20040;-43
2023/06/24 07:11:13;;;;;;;5.22;4.57;;;21.20;99.90;;;;;;5026419;28;20102;-41
2023/06/24 07:13:38;;;;;;;5.13;4.50;;;21.30;99.90;;;;;;5025850;28;20029;-41
2023/06/24 07:16:04;;;;;;;4.32;3.85;;;21.30;99.90;;;;;;5025304;28;20068;-43
2023/06/24 07:18:30;;;;;;;7.03;4.03;;;21.30;99.90;;;;;;5024940;28;20041;-42
2023/06/24 07:21:01;;;;;;;4.03;3.63;;;21.30;99.90;;;;;;5026426;28;20029;-43
2023/06/24 07:23:27;;;;;;;3.53;3.22;;;21.40;99.90;;;;;;5025859;28;20071;-42
2023/06/24 07:25:55;;;;;;;3.65;3.35;;;21.40;99.90;;;;;;5026493;28;21147;-42
2023/06/24 07:28:21;;;;;;;3.78;3.10;;;21.40;99.90;;;;;;5026200;28;20029;-42
2023/06/24 07:30:47;;;;;;;3.60;3.30;;;21.50;99.90;;;;;;5025817;28;20040;-42
2023/06/24 07:33:33;;;;;;;3.88;3.40;;;21.50;99.90;;;;;;5026140;28;20029;-42
2023/06/24 07:35:59;;;;;;;5.70;3.50;;;21.50;99.90;;;;;;5026686;28;20044;-42
2023/06/24 07:38:24;;;;;;;4.13;3.53;;;21.50;99.90;;;;;;5025599;28;20025;-42
2023/06/24 07:40:50;;;;;;;4.43;3.30;;;21.60;99.90;;;;;;5026254;28;20603;-42
2023/06/24 07:43:16;;;;;;;3.88;3.47;;;21.60;99.90;;;;;;5024984;28;20021;-43
2023/06/24 07:45:41;;;;;;;5.28;3.42;;;21.60;99.90;;;;;;5025845;28;20049;-42
2023/06/24 07:48:07;;;;;;;4.65;3.63;;;21.70;99.90;;;;;;5025397;28;20083;-42
2023/06/24 07:50:36;;;;;;;6.38;4.30;;;21.80;99.90;;;;;;5025477;28;20768;-43
2023/06/24 07:53:02;;;;;;;4.13;3.70;;;21.80;99.90;;;;;;5025951;28;20033;-43
2023/06/24 07:55:28;;;;;;;3.80;3.42;;;21.80;99.90;;;;;;5025568;28;20037;-42
2023/06/24 07:57:53;;;;;;;4.25;3.83;;;21.90;99.90;;;;;;5025771;28;20025;-43
2023/06/24 08:00:19;;;;;;;4.75;3.30;;;21.90;99.90;;;;;;5025162;28;20033;-42
2023/06/24 08:02:48;;;;;;;3.63;3.33;;;22.00;99.90;;;;;;5025910;28;20043;-43
2023/06/24 08:05:20;;;;;;;4.07;3.53;;;22.10;99.90;;;;;;5024800;28;20129;-43
2023/06/24 08:07:45;;;;;;;3.78;3.17;;;22.20;99.90;;;;;;5006467;28;20121;-43
2023/06/24 08:10:11;;;;;;;3.78;2.65;;;22.10;99.90;;;;;;5019873;28;20550;-42
2023/06/24 08:12:37;;;;;;;3.28;2.70;;;22.20;99.90;;;;;;5025201;28;20026;-42
2023/06/24 08:15:03;;;;;;;2.83;2.38;;;22.30;99.90;;;;;;5025392;28;20014;-43
2023/06/24 08:17:28;;;;;;;2.58;2.38;;;22.40;99.90;;;;;;5024767;28;20104;-42
2023/06/24 08:20:06;;;;;;;3.58;2.90;;;22.50;99.90;;;;;;5024883;28;20079;-42
2023/06/24 08:22:32;;;;;;;2.72;2.53;;;22.60;99.90;;;;;;5025636;28;20080;-42
2023/06/24 08:24:58;;;;;;;3.05;2.67;;;22.70;99.90;;;;;;5025243;28;20037;-42
2023/06/24 08:27:24;;;;;;;3.03;2.67;;;22.80;99.90;;;;;;5024710;28;20029;-42
2023/06/24 08:29:49;;;;;;;3.83;2.90;;;23.00;99.90;;;;;;5025067;28;20044;-42
2023/06/24 08:32:15;;;;;;;2.95;2.65;;;23.00;99.90;;;;;;5025002;28;20139;-42
2023/06/24 08:34:41;;;;;;;3.90;2.67;;;23.20;99.90;;;;;;5024852;28;20424;-42
2023/06/24 08:37:06;;;;;;;3.08;2.85;;;23.30;99.90;;;;;;5025050;28;20615;-43
2023/06/24 08:39:32;;;;;;;2.78;2.47;;;23.40;99.90;;;;;;5024515;28;20029;-43
2023/06/24 08:41:57;;;;;;;3.33;2.42;;;23.50;99.90;;;;;;5024938;28;20022;-44
2023/06/24 08:44:23;;;;;;;3.25;2.15;;;23.60;99.90;;;;;;5024851;28;20612;-43
2023/06/24 08:46:49;;;;;;;2.88;2.15;;;23.70;99.90;;;;;;5024304;28;20021;-42
2023/06/24 08:49:20;;;;;;;2.50;2.30;;;23.70;99.80;;;;;;5025007;28;20499;-43
2023/06/24 08:51:50;;;;;;;2.53;2.30;;;23.80;99.50;;;;;;5021089;28;20033;-43
2023/06/24 08:54:19;;;;;;;3.20;2.70;;;23.80;99.30;;;;;;5024447;28;20041;-42
2023/06/24 08:56:44;;;;;;;3.35;3.03;;;23.90;99.20;;;;;;5024378;28;20084;-42
2023/06/24 08:59:10;;;;;;;3.05;2.83;;;24.00;99.10;;;;;;5024853;28;20088;-44
2023/06/24 09:01:36;;;;;;;3.97;3.17;;;24.10;99.10;;;;;;5023236;28;20423;-43
2023/06/24 09:04:02;;;;;;;3.72;3.20;;;24.10;98.70;;;;;;5024679;28;20033;-42
2023/06/24 09:06:27;;;;;;;4.75;3.90;;;24.10;98.60;;;;;;5024398;28;20022;-42
2023/06/24 09:08:56;;;;;;;3.83;3.20;;;24.30;98.50;;;;;;5024030;28;20092;-42
2023/06/24 09:11:23;;;;;;;3.55;3.25;;;24.40;98.50;;;;;;5023765;28;20028;-43
2023/06/24 09:13:58;;;;;;;4.60;3.92;;;24.50;98.20;;;;;;5024768;28;20036;-42
2023/06/24 09:16:24;;;;;;;3.42;3.13;;;24.60;97.90;;;;;;5022972;28;20055;-43
2023/06/24 09:18:51;;;;;;;3.97;3.58;;;24.80;97.70;;;;;;5024499;28;20075;-42
2023/06/24 09:21:27;;;;;;;5.28;4.47;;;24.90;97.60;;;;;;5023971;28;20030;-43
2023/06/24 09:23:57;;;;;;;4.10;3.70;;;25.00;97.30;;;;;;5023286;28;20842;-43
2023/06/24 09:26:27;;;;;;;4.75;3.50;;;25.10;97.30;;;;;;5023909;28;20043;-42
2023/06/24 09:28:54;;;;;;;4.43;4.00;;;25.20;97.10;;;;;;5023885;28;20036;-41
2023/06/24 09:31:20;;;;;;;3.83;3.05;;;25.20;96.80;;;;;;5021210;28;20052;-41
2023/06/24 09:33:48;;;;;;;3.17;2.88;;;25.30;96.60;;;;;;5024575;28;20025;-42
2023/06/24 09:36:15;;;;;;;3.42;3.10;;;25.40;96.50;;;;;;5022971;28;20627;-42
2023/06/24 09:38:44;;;;;;;4.13;3.60;;;25.40;96.10;;;;;;5024334;28;20028;-43
2023/06/24 09:41:14;;;;;;;2.90;2.60;;;25.40;95.80;;;;;;5023749;28;20026;-43
2023/06/24 09:43:43;;;;;;;2.67;2.30;;;25.40;95.60;;;;;;5023209;28;20057;-42
2023/06/24 09:46:09;;;;;;;2.67;2.38;;;25.40;95.70;;;;;;5023846;28;20041;-46
2023/06/24 09:48:35;;;;;;;3.03;2.70;;;25.40;95.50;;;;;;5023348;28;20481;-42
2023/06/24 09:51:03;;;;;;;3.25;2.90;;;25.30;95.40;;;;;;5023220;28;20061;-43
2023/06/24 09:53:34;;;;;;;3.97;2.47;;;25.20;95.20;;;;;;5023824;28;20037;-42
2023/06/24 09:56:01;;;;;;;2.70;2.50;;;25.10;95.20;;;;;;5023688;28;20115;-42
2023/06/24 09:58:31;;;;;;;3.75;2.38;;;25.00;94.70;;;;;;5022525;28;20026;-43
2023/06/24 10:01:01;;;;;;;2.97;2.40;;;24.90;94.80;;;;;;5024232;28;20033;-42
2023/06/24 10:03:28;;;;;;;4.20;2.47;;;24.80;95.00;;;;;;5023518;28;20018;-42
2023/06/24 10:05:54;;;;;;;3.58;2.80;;;24.80;95.10;;;;;;5023230;28;20044;-43
2023/06/24 10:08:20;;;;;;;4.35;3.35;;;24.80;94.70;;;;;;5025683;28;20033;-43
2023/06/24 10:10:46;;;;;;;3.70;2.97;;;24.80;94.30;;;;;;5027830;28;20033;-43
2023/06/24 10:13:11;;;;;;;2.72;2.50;;;24.80;94.20;;;;;;5026554;28;20499;-42
2023/06/24 10:15:37;;;;;;;2.78;2.55;;;24.70;94.20;;;;;;5027301;28;20045;-42
2023/06/24 10:18:23;;;;;;;3.97;2.53;;;24.70;94.30;;;;;;5026929;28;20029;-42
2023/06/24 10:20:49;;;;;;;3.10;2.47;;;24.80;94.40;;;;;;5027474;28;20053;-43
2023/06/24 10:23:14;;;;;;;3.40;2.83;;;24.80;94.40;;;;;;5027318;28;20435;-43
2023/06/24 10:25:46;;;;;;;5.43;3.40;;;24.80;94.50;;;;;;5026940;28;20029;-43
2023/06/24 10:28:12;;;;;;;;;;;24.80;94.10;;;;;;5027947;28;20103;-43
2023/06/24 10:30:37;;;;;;;3.05;2.33;;;24.70;93.70;;;;;;5027095;28;19909;-42
2023/06/24 10:33:10;;;;;;;2.90;2.60;;;24.70;93.80;;;;;;5027036;28;20025;-42
2023/06/24 10:35:41;;;;;;;3.38;3.08;;;24.70;94.00;;;;;;5027122;28;20103;-42
2023/06/24 10:38:10;;;;;;;2.50;2.25;;;24.70;94.00;;;;;;5026979;28;20017;-43
2023/06/24 10:40:43;;;;;;;3.28;2.67;;;24.70;94.00;;;;;;5026318;28;20104;-42
2023/06/24 10:43:27;;;;;;;3.50;3.20;;;24.70;94.10;;;;;;5027161;28;20025;-42
2023/06/24 10:45:54;;;;;;;3.58;3.13;;;24.80;93.90;;;;;;5027069;28;20034;-42
2023/06/24 10:48:20;;;;;;;3.70;3.00;;;24.90;93.90;;;;;;5026247;28;20552;-43
2023/06/24 10:50:47;;;;;;;3.63;3.30;;;24.90;93.70;;;;;;5027059;28;20029;-43
2023/06/24 10:53:13;;;;;;;4.57;3.70;;;24.90;93.70;;;;;;5026348;28;20025;-43
2023/06/24 10:55:39;;;;;;;3.97;3.60;;;24.90;93.50;;;;;;5026496;28;20092;-42
2023/06/24 10:58:13;;;;;;;3.67;3.28;;;24.90;93.50;;;;;;5026949;28;20076;-42
2023/06/24 11:00:39;;;;;;;5.53;4.07;;;24.90;93.70;;;;;;5025729;28;20683;-42
2023/06/24 11:03:10;;;;;;;4.75;3.55;;;24.90;93.70;;;;;;5026309;28;20021;-42
2023/06/24 11:05:39;;;;;;;3.65;3.25;;;24.90;93.70;;;;;;5026592;28;20045;-42
2023/06/24 11:08:06;;;;;;;3.30;3.00;;;25.00;93.70;;;;;;5025988;28;20112;-43
2023/06/24 11:10:31;;;;;;;4.32;3.30;;;25.20;93.60;;;;;;5026778;28;20025;-43
2023/06/24 11:12:58;;;;;;;3.95;3.20;;;25.20;93.60;;;;;;5026741;28;20488;-42
2023/06/24 11:15:24;;;;;;;4.50;3.67;;;25.30;93.50;;;;;;5025495;28;20032;-43
2023/06/24 11:17:51;;;;;;;3.15;2.85;;;25.40;93.60;;;;;;5026405;28;20473;-42
2023/06/24 11:20:17;;;;;;;2.58;2.38;;;25.50;93.70;;;;;;5026160;28;20113;-43
2023/06/24 11:22:44;;;;;;;3.65;3.30;;;25.60;93.80;;;;;;5026847;28;20104;-42
2023/06/24 11:25:21;;;;;;;3.70;3.05;;;25.70;93.70;;;;;;5025830;28;20040;-43
2023/06/24 11:27:47;;;;;;;3.35;3.00;;;25.80;93.50;;;;;;5024282;28;20067;-44
2023/06/24 11:30:13;;;;;;;3.05;2.67;;;25.90;93.50;;;;;;5025442;28;20755;-42
2023/06/24 11:32:40;;;;;;;2.88;2.65;;;25.90;93.40;;;;;;5026163;28;20025;-42
2023/06/24 11:35:10;;;;;;;3.88;3.05;;;26.00;93.30;;;;;;5025879;28;20053;-41
2023/06/24 11:37:36;;;;;;;3.17;2.88;;;26.00;92.90;;;;;;5026087;28;20031;-42
2023/06/24 11:40:09;;;;;;;3.60;3.30;;;26.00;92.90;;;;;;5026642;28;20475;-42
2023/06/24 11:42:40;;;;;;;3.47;3.13;;;26.10;92.60;;;;;;5025021;28;20033;-42
2023/06/24 11:45:07;;;;;;;3.40;3.10;;;26.10;92.50;;;;;;5025912;28;20044;-42
2023/06/24 11:47:38;;;;;;;5.72;2.80;;;26.20;92.60;;;;;;5025571;28;20030;-47
2023/06/24 11:50:05;;;;;;;3.03;2.72;;;26.20;92.70;;;;;;5025115;28;20120;-43
2023/06/24 11:52:43;;;;;;;2.20;2.10;;;26.20;92.70;;;;;;5026017;28;20033;-42
2023/06/24 11:55:25;;;;;;;3.30;2.90;;;26.20;92.90;;;;;;5025354;28;20132;-42
2023/06/24 11:58:04;;;;;;;3.42;2.75;;;26.20;92.90;;;;;;5025370;28;20026;-43
2023/06/24 12:00:32;;;;;;;3.22;2.70;;;26.30;92.80;;;;;;5005563;28;20469;-43
2023/06/24 12:03:03;;;;;;;3.30;3.00;;;26.40;92.70;;;;;;5020408;28;20018;-42
2023/06/24 12:05:44;;;;;;;2.60;2.40;;;26.40;92.50;;;;;;5024704;28;20052;-42
2023/06/24 12:08:11;;;;;;;3.22;2.80;;;26.40;92.30;;;;;;5025397;28;20029;-40
2023/06/24 12:10:38;;;;;;;3.13;2.45;;;26.40;92.20;;;;;;5025390;28;20139;-44
2023/06/24 12:13:05;;;;;;;2.90;2.67;;;26.40;92.20;;;;;;5025098;28;20108;-47
2023/06/24 12:15:31;;;;;;;5.18;2.63;;;26.40;92.40;;;;;;5025827;28;20065;-42
2023/06/24 12:17:58;;;;;;;3.10;2.72;;;26.40;92.40;;;;;;5025192;28;20480;-43
2023/06/24 12:20:26;;;;;;;2.53;2.33;;;26.50;92.20;;;;;;5025278;28;20032;-43
2023/06/24 12:22:52;;;;;;;3.25;2.65;;;26.50;92.10;;;;;;5025530;28;20021;-44
2023/06/24 12:25:18;;;;;;;3.13;2.72;;;26.50;92.20;;;;;;5024217;28;20733;-42
2023/06/24 12:27:45;;;;;;;3.10;2.67;;;26.60;92.20;;;;;;5025599;28;20013;-42
2023/06/24 12:30:11;;;;;;;2.90;2.70;;;26.60;92.20;;;;;;5013730;28;20033;-42
2023/06/24 12:32:37;;;;;;;2.92;2.60;;;26.60;92.10;;;;;;5024619;28;20121;-42
2023/06/24 12:35:04;;;;;;;3.92;2.35;;;26.70;92.10;;;;;;5024939;28;20484;-43
2023/06/24 12:37:33;;;;;;;2.83;2.40;;;26.80;91.90;;;;;;5025082;28;20022;-43
2023/06/24 12:40:00;;;;;;;2.05;1.85;;;26.90;92.00;;;;;;5024142;28;20634;-42
2023/06/24 12:42:26;;;;;;;2.60;2.30;;;27.00;92.00;;;;;;5024787;28;20565;-42
2023/06/24 12:44:52;;;;;;;2.10;1.98;;;27.10;91.90;;;;;;5025039;28;20473;-42
2023/06/24 12:47:18;;;;;;;2.17;2.05;;;27.20;91.80;;;;;;5024190;28;20072;-41
2023/06/24 12:49:44;;;;;;;4.93;2.72;;;27.30;91.60;;;;;;5024769;28;20033;-42
2023/06/24 12:52:09;;;;;;;2.50;2.30;;;27.40;91.50;;;;;;5024305;28;20041;-42